Time;durP1;ratioP1;P1;durP2;ratioP2;P2;SDS_P1;SDS_P2;PMS_P1;PMS_P2;Temp;Humidity;BMP_temperature;BMP_pressure;BME280_temperature;BME280_humidity;BME280_pressure;Samples;Min_cycle;Max_cycle;Signal;HPM_P1;HPM_P2
2022/08/03 00:02:17;;;;;;;2.47;0.82;;;;;;;;;;6156472;23;20006;-75
2022/08/03 00:04:43;;;;;;;1.25;0.60;;;;;;;;;;6156718;23;20065;-75
2022/08/03 00:07:09;;;;;;;6.35;0.73;;;;;;;;;;6156273;23;20068;-75
2022/08/03 00:09:35;;;;;;;2.88;0.70;;;;;;;;;;6155847;23;20021;-75
2022/08/03 00:12:02;;;;;;;1.65;0.60;;;;;;;;;;6156455;23;20002;-75
2022/08/03 00:14:28;;;;;;;3.22;0.60;;;;;;;;;;6156524;23;20009;-75
2022/08/03 00:16:54;;;;;;;5.15;0.70;;;;;;;;;;6156599;23;20425;-75
2022/08/03 00:19:20;;;;;;;1.10;0.50;;;;;;;;;;6156121;23;20014;-75
2022/08/03 00:25:05;;;;;;;1.48;0.50;;;;;;;;;;6155765;23;20140;-75
2022/08/03 00:27:31;;;;;;;1.95;0.65;;;;;;;;;;6155396;23;20006;-75
2022/08/03 00:29:57;;;;;;;0.77;0.70;;;;;;;;;;6156110;23;20013;-74
2022/08/03 00:32:24;;;;;;;1.08;0.70;;;;;;;;;;6156571;23;20001;-75
2022/08/03 00:34:50;;;;;;;0.75;0.68;;;;;;;;;;6156200;23;20687;-75
2022/08/03 00:37:16;;;;;;;1.30;0.50;;;;;;;;;;6156623;23;20077;-75
2022/08/03 00:39:44;;;;;;;0.95;0.50;;;;;;;;;;6156616;23;20036;-75
2022/08/03 00:42:13;;;;;;;1.48;0.80;;;;;;;;;;6156625;23;20076;-75
2022/08/03 00:44:40;;;;;;;1.92;0.68;;;;;;;;;;6157278;23;20006;-75
2022/08/03 00:47:07;;;;;;;3.90;0.70;;;;;;;;;;6156390;23;20002;-75
2022/08/03 00:49:33;;;;;;;0.55;0.55;;;;;;;;;;6156557;23;20088;-75
2022/08/03 00:52:00;;;;;;;0.43;0.43;;;;;;;;;;6156309;23;20002;-75
2022/08/03 00:54:26;;;;;;;2.00;0.75;;;;;;;;;;6156342;23;20445;-75
2022/08/03 00:56:52;;;;;;;0.80;0.80;;;;;;;;;;6156761;23;20001;-75
2022/08/03 00:59:18;;;;;;;1.90;0.85;;;;;;;;;;6157202;23;20009;-75
2022/08/03 01:01:45;;;;;;;5.40;1.40;;;;;;;;;;6157211;23;20066;-75
2022/08/03 01:04:11;;;;;;;3.88;0.90;;;;;;;;;;6158390;23;20009;-75
2022/08/03 01:06:45;;;;;;;1.27;0.80;;;;;;;;;;6158671;23;20430;-75
2022/08/03 01:12:39;;;;;;;2.67;0.85;;;;;;;;;;6157990;23;20028;-75
2022/08/03 01:15:05;;;;;;;0.93;0.50;;;;;;;;;;6158558;23;20053;-75
2022/08/03 01:17:34;;;;;;;3.92;0.82;;;;;;;;;;6158592;23;20032;-75
2022/08/03 01:20:02;;;;;;;2.20;0.80;;;;;;;;;;6158931;23;20445;-75
2022/08/03 01:22:37;;;;;;;1.35;0.60;;;;;;;;;;6158074;23;20012;-75
2022/08/03 01:25:23;;;;;;;2.42;0.80;;;;;;;;;;6157557;23;20053;-75
2022/08/03 01:27:49;;;;;;;0.75;0.68;;;;;;;;;;6158452;23;20009;-74
2022/08/03 01:30:15;;;;;;;0.77;0.70;;;;;;;;;;6158510;23;20084;-75
2022/08/03 01:32:44;;;;;;;0.70;0.68;;;;;;;;;;6158101;23;20010;-75
2022/08/03 01:35:12;;;;;;;0.68;0.60;;;;;;;;;;6158145;23;20009;-75
2022/08/03 01:37:40;;;;;;;0.60;0.60;;;;;;;;;;6158035;23;20084;-75
2022/08/03 01:40:08;;;;;;;1.30;0.77;;;;;;;;;;6157784;23;20461;-74
2022/08/03 01:42:36;;;;;;;1.33;0.65;;;;;;;;;;6158532;23;20001;-75
2022/08/03 01:45:03;;;;;;;3.05;0.70;;;;;;;;;;6158541;23;20002;-75
2022/08/03 01:47:30;;;;;;;2.35;0.70;;;;;;;;;;6158608;23;20052;-75
2022/08/03 01:49:57;;;;;;;0.85;0.57;;;;;;;;;;6158497;23;20009;-75
2022/08/03 01:52:23;;;;;;;0.80;0.68;;;;;;;;;;6157857;23;20080;-74
2022/08/03 01:54:51;;;;;;;1.85;1.00;;;;;;;;;;6157462;23;20009;-74
2022/08/03 01:57:18;;;;;;;1.02;0.75;;;;;;;;;;6157612;23;20073;-74
2022/08/03 01:59:44;;;;;;;2.28;0.80;;;;;;;;;;6156380;23;20012;-75
2022/08/03 02:02:12;;;;;;;1.77;0.80;;;;;;;;;;6157052;23;20012;-74
2022/08/03 02:04:39;;;;;;;0.65;0.60;;;;;;;;;;6157909;23;20005;-74
2022/08/03 02:07:06;;;;;;;4.28;0.80;;;;;;;;;;6157862;23;20492;-74
2022/08/03 02:09:32;;;;;;;0.70;0.70;;;;;;;;;;6157361;23;20085;-74
2022/08/03 02:12:00;;;;;;;2.67;0.73;;;;;;;;;;6158061;23;20076;-74
2022/08/03 02:14:26;;;;;;;1.15;0.50;;;;;;;;;;6157392;23;20010;-74
2022/08/03 02:16:53;;;;;;;1.27;0.68;;;;;;;;;;6157932;23;20002;-74
2022/08/03 02:19:19;;;;;;;1.52;0.60;;;;;;;;;;6158085;23;20012;-74
2022/08/03 02:21:46;;;;;;;0.93;0.73;;;;;;;;;;6157903;23;20009;-74
2022/08/03 02:24:12;;;;;;;0.80;0.70;;;;;;;;;;6157711;23;20006;-75
2022/08/03 02:26:40;;;;;;;1.67;0.60;;;;;;;;;;6157673;23;20005;-74
2022/08/03 02:29:11;;;;;;;2.88;0.80;;;;;;;;;;6157775;23;20010;-74
2022/08/03 02:31:38;;;;;;;6.47;1.05;;;;;;;;;;6157507;23;20012;-74
2022/08/03 02:34:06;;;;;;;2.63;0.80;;;;;;;;;;6157688;23;20002;-74
2022/08/03 02:36:34;;;;;;;2.00;0.80;;;;;;;;;;6157841;23;20005;-75
2022/08/03 02:39:02;;;;;;;2.25;0.95;;;;;;;;;;6157708;23;20010;-75
2022/08/03 02:41:35;;;;;;;3.70;0.73;;;;;;;;;;6158106;23;20386;-75
2022/08/03 02:44:03;;;;;;;4.10;0.80;;;;;;;;;;6158145;23;20056;-75
2022/08/03 02:46:32;;;;;;;3.72;0.88;;;;;;;;;;6157731;23;20417;-74
2022/08/03 02:49:00;;;;;;;0.95;0.73;;;;;;;;;;6157641;23;20064;-74
2022/08/03 02:51:28;;;;;;;1.65;0.70;;;;;;;;;;6157335;23;20008;-74
2022/08/03 02:53:55;;;;;;;1.33;0.73;;;;;;;;;;6157691;23;20002;-74
2022/08/03 02:56:22;;;;;;;7.18;0.93;;;;;;;;;;6156007;23;20393;-75
2022/08/03 02:58:49;;;;;;;1.10;0.90;;;;;;;;;;6157266;23;20010;-74
2022/08/03 03:01:16;;;;;;;2.45;0.95;;;;;;;;;;6157511;23;20025;-74
2022/08/03 03:03:44;;;;;;;0.65;0.65;;;;;;;;;;6157835;23;20005;-74
2022/08/03 03:06:10;;;;;;;0.90;0.70;;;;;;;;;;6157205;23;20511;-74
2022/08/03 03:08:37;;;;;;;1.25;0.60;;;;;;;;;;6157462;23;20048;-74
2022/08/03 03:11:03;;;;;;;2.08;0.70;;;;;;;;;;6156991;23;20009;-74
2022/08/03 03:13:30;;;;;;;1.20;0.57;;;;;;;;;;6157502;23;20005;-74
2022/08/03 03:15:59;;;;;;;2.58;0.90;;;;;;;;;;6157639;23;19997;-74
2022/08/03 03:18:27;;;;;;;1.45;0.80;;;;;;;;;;6157063;23;20013;-74
2022/08/03 03:20:54;;;;;;;1.02;0.80;;;;;;;;;;6157533;23;20002;-74
2022/08/03 03:23:22;;;;;;;1.05;0.88;;;;;;;;;;6157079;23;20036;-74
2022/08/03 03:25:48;;;;;;;1.67;0.95;;;;;;;;;;6156572;23;20017;-74
2022/08/03 03:28:14;;;;;;;4.53;1.00;;;;;;;;;;6157245;23;20009;-74
2022/08/03 03:30:40;;;;;;;3.33;1.00;;;;;;;;;;6156964;23;20001;-74
2022/08/03 03:33:07;;;;;;;4.05;1.02;;;;;;;;;;6156837;23;20002;-74
2022/08/03 03:35:33;;;;;;;4.60;1.15;;;;;;;;;;6157089;23;20029;-74
2022/08/03 03:37:59;;;;;;;2.45;1.15;;;;;;;;;;6157576;23;20073;-74
2022/08/03 03:40:26;;;;;;;2.53;0.98;;;;;;;;;;6156678;23;20010;-74
2022/08/03 03:42:52;;;;;;;1.10;1.00;;;;;;;;;;6157131;23;20002;-74
2022/08/03 03:45:18;;;;;;;3.38;0.85;;;;;;;;;;6156822;23;20464;-74
2022/08/03 03:47:44;;;;;;;2.03;1.02;;;;;;;;;;6157158;23;20004;-74
2022/08/03 03:50:10;;;;;;;1.15;1.00;;;;;;;;;;6157207;23;20045;-74
2022/08/03 03:52:37;;;;;;;1.77;0.80;;;;;;;;;;6156817;23;20029;-74
2022/08/03 03:55:03;;;;;;;4.35;1.17;;;;;;;;;;6157258;23;20005;-74
2022/08/03 03:57:29;;;;;;;1.48;1.10;;;;;;;;;;6156759;23;20005;-74
2022/08/03 03:59:55;;;;;;;3.75;1.00;;;;;;;;;;6157248;23;20006;-74
2022/08/03 04:02:21;;;;;;;2.47;0.98;;;;;;;;;;6156698;23;20028;-74
2022/08/03 04:13:09;;;;;;;1.90;1.00;;;;;;;;;;6156987;23;20549;-74
2022/08/03 04:15:36;;;;;;;2.88;1.02;;;;;;;;;;6157061;23;20032;-74
2022/08/03 04:18:03;;;;;;;4.68;1.20;;;;;;;;;;6156920;23;20037;-74
2022/08/03 04:20:32;;;;;;;3.55;1.15;;;;;;;;;;6157065;23;20001;-74
2022/08/03 04:23:00;;;;;;;3.20;1.58;;;;;;;;;;6156800;23;20128;-74
2022/08/03 04:25:28;;;;;;;4.05;1.25;;;;;;;;;;6156666;23;20021;-74
2022/08/03 04:27:58;;;;;;;4.22;1.40;;;;;;;;;;6157489;23;20437;-74
2022/08/03 04:30:26;;;;;;;3.75;1.30;;;;;;;;;;6156374;23;20010;-74
2022/08/03 04:32:52;;;;;;;1.90;1.45;;;;;;;;;;6156842;23;20448;-74
2022/08/03 04:35:19;;;;;;;4.45;1.17;;;;;;;;;;6157144;23;20001;-74
2022/08/03 04:37:46;;;;;;;3.00;1.20;;;;;;;;;;6156506;23;20027;-74
2022/08/03 04:40:33;;;;;;;2.38;1.40;;;;;;;;;;6156136;23;20499;-74
2022/08/03 04:42:59;;;;;;;9.80;1.45;;;;;;;;;;6157512;23;20070;-74
2022/08/03 04:45:26;;;;;;;13.05;1.60;;;;;;;;;;6156432;23;20028;-74
2022/08/03 04:47:53;;;;;;;6.00;1.10;;;;;;;;;;6156699;23;20010;-74
2022/08/03 04:50:19;;;;;;;7.57;1.23;;;;;;;;;;6156582;23;20016;-74
2022/08/03 04:52:46;;;;;;;3.17;1.30;;;;;;;;;;6157287;23;20424;-74
2022/08/03 04:55:12;;;;;;;4.10;1.10;;;;;;;;;;6156925;23;20445;-74
2022/08/03 04:57:38;;;;;;;10.20;1.70;;;;;;;;;;6156677;23;20512;-74
2022/08/03 05:00:05;;;;;;;5.38;1.73;;;;;;;;;;6156677;23;20006;-74
2022/08/03 05:02:32;;;;;;;5.72;1.20;;;;;;;;;;6156327;23;20033;-74
2022/08/03 05:04:58;;;;;;;6.60;1.40;;;;;;;;;;6156878;23;20072;-74
2022/08/03 05:07:24;;;;;;;5.57;1.50;;;;;;;;;;6156600;23;20073;-74
2022/08/03 05:09:51;;;;;;;11.77;2.22;;;;;;;;;;6156977;23;20084;-74
2022/08/03 05:12:17;;;;;;;17.52;2.10;;;;;;;;;;6160223;23;20090;-73
2022/08/03 05:14:43;;;;;;;17.85;2.10;;;;;;;;;;6156408;23;20029;-74
2022/08/03 05:17:09;;;;;;;6.38;1.80;;;;;;;;;;6157263;23;20002;-74
2022/08/03 05:19:35;;;;;;;7.45;1.60;;;;;;;;;;6156610;23;20002;-74
2022/08/03 05:22:02;;;;;;;3.78;1.40;;;;;;;;;;6156532;23;20009;-74
2022/08/03 05:24:28;;;;;;;4.93;1.40;;;;;;;;;;6156891;23;20201;-74
2022/08/03 05:26:54;;;;;;;11.05;1.48;;;;;;;;;;6156884;23;20065;-74
2022/08/03 05:29:20;;;;;;;3.50;1.58;;;;;;;;;;6156041;23;20092;-74
2022/08/03 05:31:46;;;;;;;3.20;1.50;;;;;;;;;;6156540;23;20002;-74
2022/08/03 05:34:12;;;;;;;5.47;1.50;;;;;;;;;;6156549;23;20009;-74
2022/08/03 05:36:38;;;;;;;3.30;1.30;;;;;;;;;;6156133;23;20069;-74
2022/08/03 05:39:04;;;;;;;6.50;1.38;;;;;;;;;;6156498;23;20088;-74
2022/08/03 05:41:30;;;;;;;5.40;1.50;;;;;;;;;;6157148;23;20433;-74
2022/08/03 05:43:57;;;;;;;4.90;1.60;;;;;;;;;;6156828;23;20005;-74
2022/08/03 05:46:23;;;;;;;3.25;1.80;;;;;;;;;;6155980;23;20085;-74
2022/08/03 05:48:49;;;;;;;2.85;1.50;;;;;;;;;;6157256;23;20508;-73
2022/08/03 05:51:16;;;;;;;4.13;1.40;;;;;;;;;;6157922;23;20002;-74
2022/08/03 05:53:42;;;;;;;6.85;1.52;;;;;;;;;;6158055;23;20035;-74
2022/08/03 05:56:09;;;;;;;8.05;1.80;;;;;;;;;;6157686;23;20001;-74
2022/08/03 05:58:35;;;;;;;6.13;1.58;;;;;;;;;;6157529;23;20538;-75
2022/08/03 06:01:01;;;;;;;11.63;1.90;;;;;;;;;;6157697;23;20180;-75
2022/08/03 06:03:28;;;;;;;3.38;1.52;;;;;;;;;;6157709;23;20053;-75
2022/08/03 06:05:55;;;;;;;4.32;2.10;;;;;;;;;;6157565;23;20065;-74
2022/08/03 06:08:21;;;;;;;5.07;2.00;;;;;;;;;;6157552;23;20009;-74
2022/08/03 06:10:47;;;;;;;4.00;1.65;;;;;;;;;;6157445;23;20028;-74
2022/08/03 06:13:14;;;;;;;11.25;2.00;;;;;;;;;;6157432;23;20028;-74
2022/08/03 06:15:40;;;;;;;5.90;2.28;;;;;;;;;;6157008;23;20013;-74
2022/08/03 06:18:07;;;;;;;1.77;1.67;;;;;;;;;;6157882;23;20001;-74
2022/08/03 06:20:33;;;;;;;2.67;2.05;;;;;;;;;;6157453;23;20013;-75
2022/08/03 06:22:59;;;;;;;4.90;1.90;;;;;;;;;;6157648;23;20001;-74
2022/08/03 06:25:26;;;;;;;7.07;2.08;;;;;;;;;;6157415;23;20021;-74
2022/08/03 06:27:52;;;;;;;6.53;2.00;;;;;;;;;;6157098;23;19997;-74
2022/08/03 06:30:18;;;;;;;7.68;1.77;;;;;;;;;;6157244;23;20014;-73
2022/08/03 06:32:44;;;;;;;8.10;2.22;;;;;;;;;;6157323;23;20004;-74
2022/08/03 06:35:10;;;;;;;5.30;2.25;;;;;;;;;;6157614;23;20068;-71
2022/08/03 06:37:47;;;;;;;5.68;2.38;;;;;;;;;;6153998;23;20056;-69
2022/08/03 06:40:13;;;;;;;4.75;2.05;;;;;;;;;;6155225;23;20009;-69
2022/08/03 06:42:47;;;;;;;6.43;2.45;;;;;;;;;;6155174;23;20001;-73
2022/08/03 06:45:27;;;;;;;4.38;1.80;;;;;;;;;;6154149;23;20091;-77
2022/08/03 06:48:01;;;;;;;10.50;2.35;;;;;;;;;;6178108;23;20097;-73
2022/08/03 06:56:25;;;;;;;5.80;2.10;;;;;;;;;;5160723;27;20329;-69
2022/08/03 06:59:26;;;;;;;3.50;2.33;;;;;;;;;;5111400;27;20376;-68
2022/08/03 07:01:52;;;;;;;10.82;2.42;;;;;;;;;;5126945;28;20383;-68
2022/08/03 07:04:18;;;;;;;3.63;2.45;;;;;;;;;;5110689;28;20043;-68
2022/08/03 07:06:44;;;;;;;4.60;2.60;;;;;;;;;;5111851;28;20036;-68
2022/08/03 07:09:11;;;;;;;6.03;2.03;;;;;;;;;;5112055;28;20066;-69
2022/08/03 07:11:37;;;;;;;8.20;2.35;;;;;;;;;;5111317;28;20051;-69
2022/08/03 07:14:03;;;;;;;6.10;2.63;;;;;;;;;;5112327;28;20502;-69
2022/08/03 07:16:29;;;;;;;3.75;2.35;;;;;;;;;;5112065;28;20478;-69
2022/08/03 07:18:55;;;;;;;6.47;2.67;;;;;;;;;;5078848;27;20070;-69
2022/08/03 07:21:21;;;;;;;4.60;2.58;;;;;;;;;;5070559;28;20050;-69
2022/08/03 07:23:48;;;;;;;4.50;2.38;;;;;;;;;;5070859;28;20487;-69
2022/08/03 07:26:14;;;;;;;6.60;2.50;;;;;;;;;;5071119;28;20033;-69
2022/08/03 07:28:40;;;;;;;3.47;2.50;;;;;;;;;;5067971;28;20040;-69
2022/08/03 07:31:06;;;;;;;7.00;2.58;;;;;;;;;;5055606;28;20037;-68
2022/08/03 07:33:32;;;;;;;3.67;2.72;;;;;;;;;;5070596;28;20048;-69
2022/08/03 07:35:59;;;;;;;4.97;2.88;;;;;;;;;;5070951;28;20491;-69
2022/08/03 07:38:25;;;;;;;8.32;2.78;;;;;;;;;;5070238;28;20123;-69
2022/08/03 07:42:35;;;;;;;14.45;2.95;;;;;;;;;;5112342;27;20376;-68
2022/08/03 07:45:02;;;;;;;9.77;2.70;;;;;;;;;;5109884;28;20049;-68
2022/08/03 07:47:29;;;;;;;8.43;2.55;;;;;;;;;;5109911;28;20047;-68
2022/08/03 07:49:55;;;;;;;4.75;2.30;;;;;;;;;;5110832;28;20039;-68
2022/08/03 07:55:06;;;;;;;6.20;2.45;;;;;;;;;;5111382;28;20047;-68
2022/08/03 07:57:33;;;;;;;10.05;2.30;;;;;;;;;;5111340;28;20128;-68
2022/08/03 07:59:59;;;;;;;5.00;2.08;;;;;;;;;;5110086;28;20043;-68
2022/08/03 08:02:25;;;;;;;4.43;2.20;;;;;;;;;;5108753;28;20502;-68
2022/08/03 08:04:51;;;;;;;2.15;1.90;;;;;;;;;;5110300;28;20048;-68
2022/08/03 08:07:17;;;;;;;2.90;1.75;;;;;;;;;;5110734;28;20050;-68
2022/08/03 08:09:43;;;;;;;5.05;1.85;;;;;;;;;;5110117;28;20127;-68
2022/08/03 08:12:11;;;;;;;2.78;1.70;;;;;;;;;;5111273;28;20048;-68
2022/08/03 08:14:38;;;;;;;1.80;1.70;;;;;;;;;;5110519;28;20032;-69
2022/08/03 08:17:04;;;;;;;5.57;2.03;;;;;;;;;;5110117;28;20036;-68
2022/08/03 08:19:30;;;;;;;11.60;2.40;;;;;;;;;;5111021;28;20028;-68
2022/08/03 08:21:56;;;;;;;4.45;1.75;;;;;;;;;;5111089;28;20120;-68
2022/08/03 08:24:22;;;;;;;4.22;1.77;;;;;;;;;;5115725;28;20054;-68
2022/08/03 08:26:49;;;;;;;2.83;1.92;;;;;;;;;;5131729;28;20039;-69
2022/08/03 08:29:15;;;;;;;2.13;1.90;;;;;;;;;;5119149;28;20044;-69
2022/08/03 08:31:41;;;;;;;2.13;1.92;;;;;;;;;;5109335;28;20046;-71
2022/08/03 08:34:07;;;;;;;4.68;2.03;;;;;;;;;;5110325;28;20042;-68
2022/08/03 08:36:34;;;;;;;4.55;2.15;;;;;;;;;;5105992;28;20047;-69
2022/08/03 08:39:00;;;;;;;4.28;2.00;;;;;;;;;;5123707;28;20115;-69
2022/08/03 08:41:27;;;;;;;4.75;2.05;;;;;;;;;;5112966;28;20642;-69
2022/08/03 08:43:53;;;;;;;1.92;1.80;;;;;;;;;;5110530;28;20073;-69
2022/08/03 08:46:20;;;;;;;6.13;2.00;;;;;;;;;;5114329;28;20105;-69
2022/08/03 08:48:48;;;;;;;2.95;2.15;;;;;;;;;;5106111;28;20042;-69
2022/08/03 08:51:15;;;;;;;4.90;2.00;;;;;;;;;;5109518;28;20065;-69
2022/08/03 08:53:44;;;;;;;3.80;2.05;;;;;;;;;;5096905;28;20044;-69
2022/08/03 08:56:14;;;;;;;3.15;2.40;;;;;;;;;;5095257;28;20082;-69
2022/08/03 08:58:51;;;;;;;2.20;2.00;;;;;;;;;;5094765;28;20067;-69
2022/08/03 09:01:19;;;;;;;6.57;1.92;;;;;;;;;;5093718;28;20051;-69
2022/08/03 09:03:45;;;;;;;5.20;1.85;;;;;;;;;;5096019;28;20104;-69
2022/08/03 09:06:12;;;;;;;4.53;2.30;;;;;;;;;;5095921;28;20051;-69
2022/08/03 09:08:38;;;;;;;2.67;2.15;;;;;;;;;;5096111;28;20048;-69
2022/08/03 09:11:04;;;;;;;3.50;2.35;;;;;;;;;;5095111;28;20521;-69
2022/08/03 09:13:30;;;;;;;3.60;2.30;;;;;;;;;;5095612;28;20042;-69
2022/08/03 09:16:15;;;;;;;4.55;2.22;;;;;;;;;;5090465;28;20053;-69
2022/08/03 09:18:42;;;;;;;7.57;2.45;;;;;;;;;;5089049;28;20036;-69
2022/08/03 09:21:16;;;;;;;7.32;2.38;;;;;;;;;;5094456;28;20077;-70
2022/08/03 09:23:46;;;;;;;12.70;2.42;;;;;;;;;;5094660;28;20048;-69
2022/08/03 09:26:12;;;;;;;8.60;2.38;;;;;;;;;;5093364;28;20506;-69
2022/08/03 09:28:38;;;;;;;3.83;2.38;;;;;;;;;;5093861;28;20085;-69
2022/08/03 09:31:07;;;;;;;6.88;2.10;;;;;;;;;;5095112;28;20040;-69
2022/08/03 09:33:45;;;;;;;5.53;2.45;;;;;;;;;;5095456;28;20032;-69
2022/08/03 09:36:31;;;;;;;3.67;1.98;;;;;;;;;;5095765;28;20044;-69
2022/08/03 09:39:03;;;;;;;4.18;2.30;;;;;;;;;;5089554;28;20032;-69
2022/08/03 09:41:29;;;;;;;2.50;2.10;;;;;;;;;;5085837;28;20051;-69
2022/08/03 09:43:56;;;;;;;3.58;2.30;;;;;;;;;;5095758;28;20047;-70
2022/08/03 09:46:22;;;;;;;2.97;2.38;;;;;;;;;;5094798;28;20062;-71
2022/08/03 09:48:48;;;;;;;4.88;2.30;;;;;;;;;;5095485;28;20032;-70
2022/08/03 09:51:17;;;;;;;2.20;1.95;;;;;;;;;;5096301;28;20495;-70
2022/08/03 09:53:47;;;;;;;7.78;2.05;;;;;;;;;;5087753;28;20036;-70
2022/08/03 09:56:13;;;;;;;4.38;2.30;;;;;;;;;;5099261;28;20134;-70
2022/08/03 09:58:46;;;;;;;7.05;2.22;;;;;;;;;;5094791;28;20039;-70
2022/08/03 10:01:12;;;;;;;7.03;2.00;;;;;;;;;;5091691;28;20044;-70
2022/08/03 10:03:40;;;;;;;6.18;2.58;;;;;;;;;;5093088;28;20578;-70
2022/08/03 10:06:15;;;;;;;2.90;2.40;;;;;;;;;;5094848;28;20176;-70
2022/08/03 10:08:41;;;;;;;4.65;2.28;;;;;;;;;;5095596;28;20032;-70
2022/08/03 10:11:07;;;;;;;4.95;2.40;;;;;;;;;;5095027;28;20044;-70
2022/08/03 10:13:34;;;;;;;4.47;2.45;;;;;;;;;;5099650;28;20331;-70
2022/08/03 10:16:00;;;;;;;12.98;2.28;;;;;;;;;;5094720;28;20587;-70
2022/08/03 10:18:26;;;;;;;10.20;2.50;;;;;;;;;;5095619;28;20097;-69
2022/08/03 10:20:52;;;;;;;5.05;2.30;;;;;;;;;;5094204;28;20048;-69
2022/08/03 10:23:19;;;;;;;3.60;2.40;;;;;;;;;;5094730;28;20035;-69
2022/08/03 10:25:47;;;;;;;4.75;2.28;;;;;;;;;;5088919;28;20044;-70
2022/08/03 10:28:15;;;;;;;11.10;2.83;;;;;;;;;;5094888;28;20032;-70
2022/08/03 10:30:44;;;;;;;8.20;2.00;;;;;;;;;;5094071;28;20093;-69
2022/08/03 10:33:33;;;;;;;2.90;2.22;;;;;;;;;;5093776;28;20101;-69
2022/08/03 10:35:59;;;;;;;2.85;2.17;;;;;;;;;;5094776;28;20586;-70
2022/08/03 10:38:29;;;;;;;3.85;2.38;;;;;;;;;;5086310;28;20035;-70
2022/08/03 10:40:55;;;;;;;7.18;2.50;;;;;;;;;;5091135;28;20430;-69
2022/08/03 10:43:25;;;;;;;6.45;2.20;;;;;;;;;;5093615;28;20040;-69
2022/08/03 10:45:51;;;;;;;4.93;2.30;;;;;;;;;;5093726;28;20056;-70
2022/08/03 10:48:19;;;;;;;4.88;2.40;;;;;;;;;;5094235;28;20158;-70
2022/08/03 10:50:46;;;;;;;3.47;2.42;;;;;;;;;;5094006;28;20051;-68
2022/08/03 10:53:12;;;;;;;7.40;2.30;;;;;;;;;;5093098;28;20035;-67
2022/08/03 10:58:36;;;;;;;4.45;2.25;;;;;;;;;;5093379;28;20402;-67
2022/08/03 11:01:03;;;;;;;4.95;2.45;;;;;;;;;;5091268;28;20100;-68
2022/08/03 11:03:30;;;;;;;4.97;2.50;;;;;;;;;;5093562;28;20098;-68
2022/08/03 11:06:18;;;;;;;3.42;2.22;;;;;;;;;;5092618;28;20044;-68
2022/08/03 11:08:44;;;;;;;7.88;3.13;;;;;;;;;;5085827;28;20403;-67
2022/08/03 11:11:16;;;;;;;4.65;3.03;;;;;;;;;;5093614;28;20043;-67
2022/08/03 11:14:03;;;;;;;5.55;2.60;;;;;;;;;;5093823;28;20256;-67
2022/08/03 11:16:31;;;;;;;4.35;2.78;;;;;;;;;;5092627;28;20115;-67
2022/08/03 11:18:57;;;;;;;4.05;2.58;;;;;;;;;;5094002;28;20035;-67
2022/08/03 11:21:42;;;;;;;4.50;2.60;;;;;;;;;;5092513;28;20040;-67
2022/08/03 11:24:08;;;;;;;4.38;2.75;;;;;;;;;;5093276;28;20044;-68
2022/08/03 11:26:35;;;;;;;2.60;2.30;;;;;;;;;;5093928;28;20064;-67
2022/08/03 11:29:19;;;;;;;8.38;2.45;;;;;;;;;;5092775;28;20072;-67
2022/08/03 11:31:46;;;;;;;5.43;2.80;;;;;;;;;;5090082;28;20097;-67
2022/08/03 11:34:13;;;;;;;7.28;2.83;;;;;;;;;;5093727;28;20042;-67
2022/08/03 11:36:58;;;;;;;4.68;2.53;;;;;;;;;;5084897;28;20040;-68
2022/08/03 11:39:39;;;;;;;3.92;2.60;;;;;;;;;;5092556;28;20179;-67
2022/08/03 11:42:23;;;;;;;6.70;2.30;;;;;;;;;;5091539;28;20047;-67
2022/08/03 11:44:54;;;;;;;3.22;2.22;;;;;;;;;;5092909;28;20127;-67
2022/08/03 11:47:20;;;;;;;;;;;;;;;;;;5091820;28;20044;-67
2022/08/03 11:49:49;;;;;;;2.85;2.40;;;;;;;;;;5093333;28;20259;-67
2022/08/03 11:52:16;;;;;;;4.10;2.55;;;;;;;;;;5093018;28;20502;-67
2022/08/03 11:54:43;;;;;;;3.70;2.00;;;;;;;;;;5093197;28;20086;-67
2022/08/03 11:57:09;;;;;;;5.75;2.60;;;;;;;;;;5093407;28;20093;-67
2022/08/03 11:59:36;;;;;;;6.68;2.60;;;;;;;;;;5093712;28;20366;-68
2022/08/03 12:02:09;;;;;;;10.05;2.70;;;;;;;;;;5093572;28;20486;-69
2022/08/03 12:05:01;;;;;;;16.27;3.15;;;;;;;;;;5092871;28;20173;-67
2022/08/03 12:07:29;;;;;;;4.45;2.47;;;;;;;;;;5094283;28;20467;-67
2022/08/03 12:10:08;;;;;;;4.40;2.13;;;;;;;;;;5093481;28;20040;-67
2022/08/03 12:12:35;;;;;;;2.35;1.88;;;;;;;;;;5092588;28;20071;-67
2022/08/03 12:15:01;;;;;;;6.55;2.40;;;;;;;;;;5092961;28;20032;-67
2022/08/03 12:17:34;;;;;;;6.45;2.08;;;;;;;;;;5093773;28;20043;-67
2022/08/03 12:20:00;;;;;;;6.68;2.20;;;;;;;;;;5094236;28;20047;-67
2022/08/03 12:22:40;;;;;;;12.05;2.50;;;;;;;;;;5094291;28;20060;-67
2022/08/03 12:25:07;;;;;;;7.38;2.33;;;;;;;;;;5093606;28;20164;-67
2022/08/03 12:27:33;;;;;;;2.78;1.80;;;;;;;;;;5095212;28;20550;-67
2022/08/03 12:30:00;;;;;;;5.68;2.10;;;;;;;;;;5097994;28;20063;-67
2022/08/03 12:32:27;;;;;;;2.30;1.77;;;;;;;;;;5097690;28;20035;-67
2022/08/03 12:34:54;;;;;;;3.65;2.22;;;;;;;;;;5097675;28;20047;-67
2022/08/03 12:37:21;;;;;;;3.97;2.30;;;;;;;;;;5097515;28;20508;-67
2022/08/03 12:39:51;;;;;;;4.43;2.15;;;;;;;;;;5097699;28;20042;-67
2022/08/03 12:42:17;;;;;;;6.18;2.25;;;;;;;;;;5098051;28;20096;-67
2022/08/03 12:44:45;;;;;;;6.40;1.65;;;;;;;;;;5097905;28;20574;-67
2022/08/03 12:47:11;;;;;;;3.33;2.03;;;;;;;;;;5097935;28;20120;-67
2022/08/03 12:49:51;;;;;;;3.47;1.42;;;;;;;;;;5097872;28;20101;-67
2022/08/03 12:52:18;;;;;;;4.32;1.70;;;;;;;;;;5097322;28;20052;-67
2022/08/03 12:55:00;;;;;;;4.63;2.05;;;;;;;;;;5098102;28;20097;-67
2022/08/03 12:57:39;;;;;;;2.78;1.98;;;;;;;;;;5098408;28;20051;-67
2022/08/03 13:00:16;;;;;;;7.70;2.08;;;;;;;;;;5097989;28;20043;-67
2022/08/03 13:02:45;;;;;;;3.10;1.70;;;;;;;;;;5098037;28;20056;-67
2022/08/03 13:05:12;;;;;;;4.53;2.28;;;;;;;;;;5097706;28;20047;-67
2022/08/03 13:07:41;;;;;;;7.70;2.08;;;;;;;;;;5097591;28;20044;-67
2022/08/03 13:10:08;;;;;;;5.22;2.00;;;;;;;;;;5097120;28;20490;-67
2022/08/03 13:12:45;;;;;;;4.03;1.73;;;;;;;;;;5098079;28;20089;-67
2022/08/03 13:15:11;;;;;;;3.85;1.80;;;;;;;;;;5097701;28;20055;-67
2022/08/03 13:17:37;;;;;;;1.70;1.60;;;;;;;;;;5097458;28;20044;-67
2022/08/03 13:20:03;;;;;;;4.82;2.10;;;;;;;;;;5096943;28;20487;-67
2022/08/03 13:22:31;;;;;;;3.65;1.80;;;;;;;;;;5097262;28;20048;-67
2022/08/03 13:24:59;;;;;;;4.05;1.88;;;;;;;;;;5097165;28;20414;-67
2022/08/03 13:27:26;;;;;;;2.38;1.83;;;;;;;;;;5097777;28;20042;-67
2022/08/03 13:29:52;;;;;;;3.15;1.98;;;;;;;;;;5097280;28;20544;-67
2022/08/03 13:32:18;;;;;;;2.60;1.83;;;;;;;;;;5097104;28;20040;-67
2022/08/03 13:34:45;;;;;;;2.65;1.80;;;;;;;;;;5097331;28;20132;-67
2022/08/03 13:37:11;;;;;;;4.03;2.13;;;;;;;;;;5097045;28;20040;-67
2022/08/03 13:39:38;;;;;;;6.93;1.92;;;;;;;;;;5096434;28;20494;-67
2022/08/03 13:42:04;;;;;;;9.30;1.80;;;;;;;;;;5096327;28;20444;-67
2022/08/03 13:44:30;;;;;;;3.40;2.05;;;;;;;;;;5097088;28;20048;-67
2022/08/03 13:46:58;;;;;;;2.80;1.88;;;;;;;;;;5096549;28;20043;-67
2022/08/03 13:49:24;;;;;;;4.10;2.03;;;;;;;;;;5095833;28;20040;-67
2022/08/03 13:51:50;;;;;;;10.02;2.03;;;;;;;;;;5096176;28;20048;-67
2022/08/03 13:54:16;;;;;;;3.55;1.73;;;;;;;;;;5095646;28;20039;-67
2022/08/03 13:56:48;;;;;;;3.75;1.80;;;;;;;;;;5096104;28;20047;-67
2022/08/03 13:59:15;;;;;;;4.20;2.20;;;;;;;;;;5095705;28;20051;-67
2022/08/03 14:01:41;;;;;;;3.90;1.90;;;;;;;;;;5096179;28;20052;-67
2022/08/03 14:04:07;;;;;;;5.55;2.15;;;;;;;;;;5096819;28;20069;-67
2022/08/03 14:06:33;;;;;;;2.13;1.65;;;;;;;;;;5095909;28;20036;-67
2022/08/03 14:08:59;;;;;;;8.32;2.40;;;;;;;;;;5095999;28;20079;-67
2022/08/03 14:11:25;;;;;;;3.65;2.00;;;;;;;;;;5095843;28;20044;-67
2022/08/03 14:13:51;;;;;;;8.02;2.03;;;;;;;;;;5096678;28;20101;-67
2022/08/03 14:16:18;;;;;;;6.15;1.98;;;;;;;;;;5095559;28;20040;-67
2022/08/03 14:18:44;;;;;;;2.38;1.60;;;;;;;;;;5096274;28;20153;-67
2022/08/03 14:21:11;;;;;;;2.85;1.58;;;;;;;;;;5095553;28;20074;-67
2022/08/03 14:23:38;;;;;;;1.92;1.75;;;;;;;;;;5096140;28;20475;-67
2022/08/03 14:26:08;;;;;;;1.65;1.55;;;;;;;;;;5095639;28;20032;-67
2022/08/03 14:28:34;;;;;;;3.77;2.00;;;;;;;;;;5096095;28;20123;-67
2022/08/03 14:31:01;;;;;;;7.65;2.10;;;;;;;;;;5095765;28;20269;-67
2022/08/03 14:33:27;;;;;;;4.28;1.70;;;;;;;;;;5095402;28;20521;-67
2022/08/03 14:35:53;;;;;;;4.63;2.08;;;;;;;;;;5095726;28;20068;-67
2022/08/03 14:38:20;;;;;;;4.40;2.00;;;;;;;;;;5095813;28;20086;-67
2022/08/03 14:40:46;;;;;;;2.75;1.88;;;;;;;;;;5094755;28;20138;-67
2022/08/03 14:43:12;;;;;;;3.20;1.60;;;;;;;;;;5095752;28;20563;-67
2022/08/03 14:45:41;;;;;;;6.53;2.42;;;;;;;;;;5094945;28;20071;-67
2022/08/03 14:48:07;;;;;;;3.20;1.67;;;;;;;;;;5095111;28;20095;-67
2022/08/03 14:50:33;;;;;;;7.32;2.25;;;;;;;;;;5094549;28;20044;-67
2022/08/03 14:53:00;;;;;;;4.07;1.80;;;;;;;;;;5095750;28;20032;-67
2022/08/03 14:55:26;;;;;;;4.28;1.88;;;;;;;;;;5095329;28;20047;-67
2022/08/03 14:57:52;;;;;;;3.00;1.70;;;;;;;;;;5095518;28;20040;-67
2022/08/03 15:00:18;;;;;;;2.53;1.70;;;;;;;;;;5094902;28;20070;-67
2022/08/03 15:02:44;;;;;;;1.70;1.60;;;;;;;;;;5095102;28;20510;-67
2022/08/03 15:05:11;;;;;;;1.85;1.40;;;;;;;;;;5095451;28;20115;-67
2022/08/03 15:07:38;;;;;;;2.45;1.65;;;;;;;;;;5095255;28;20119;-67
2022/08/03 15:10:04;;;;;;;6.22;1.70;;;;;;;;;;5094859;28;20043;-67
2022/08/03 15:12:31;;;;;;;5.22;1.73;;;;;;;;;;5094491;28;20046;-67
2022/08/03 15:14:57;;;;;;;4.20;1.60;;;;;;;;;;5095180;28;20051;-67
2022/08/03 15:17:23;;;;;;;7.20;2.33;;;;;;;;;;5094639;28;20075;-67